Time;durP1;ratioP1;P1;durP2;ratioP2;P2;SDS_P1;SDS_P2;PMS_P1;PMS_P2;Temp;Humidity;BMP_temperature;BMP_pressure;BME280_temperature;BME280_humidity;BME280_pressure;Samples;Min_cycle;Max_cycle;Signal;HPM_P1;HPM_P2
2022/12/24 00:00:03;;;;;;;45.00;6.90;;;;;;;;;;6270625;22;20056;-58
2022/12/24 00:02:38;;;;;;;36.30;7.03;;;;;;;;;;6270101;22;20020;-58
2022/12/24 00:05:05;;;;;;;;;;;;;;;;;;6270729;22;20034;-50
2022/12/24 00:07:32;;;;;;;43.30;6.73;;;;;;;;;;6269311;22;19970;-54
2022/12/24 00:10:06;;;;;;;46.57;6.27;;;;;;;;;;6268906;22;20099;-59
2022/12/24 00:12:33;;;;;;;31.45;6.60;;;;;;;;;;6270201;22;20020;-59
2022/12/24 00:15:07;;;;;;;18.13;5.38;;;;;;;;;;6269387;22;20047;-57
2022/12/24 00:17:40;;;;;;;17.92;5.95;;;;;;;;;;6268023;22;20456;-55
2022/12/24 00:20:23;;;;;;;9.93;5.60;;;;;;;;;;6270099;22;20055;-59
2022/12/24 00:22:50;;;;;;;44.90;6.97;;;;;;;;;;6267853;22;20102;-59
2022/12/24 00:25:24;;;;;;;21.55;6.13;;;;;;;;;;6269117;22;20099;-53
2022/12/24 00:27:51;;;;;;;15.10;6.72;;;;;;;;;;6268729;22;20589;-60
2022/12/24 00:30:18;;;;;;;20.65;6.28;;;;;;;;;;6268944;22;20389;-58
2022/12/24 00:32:51;;;;;;;9.55;5.00;;;;;;;;;;6268058;22;20461;-62
2022/12/24 00:35:19;;;;;;;23.67;6.68;;;;;;;;;;6268712;22;20024;-61
2022/12/24 00:37:49;;;;;;;16.23;6.40;;;;;;;;;;6269401;22;20055;-61
2022/12/24 00:40:22;;;;;;;11.25;5.72;;;;;;;;;;6242155;22;20051;-59
2022/12/24 00:42:50;;;;;;;43.47;7.32;;;;;;;;;;6268616;22;20023;-48
2022/12/24 00:45:25;;;;;;;14.50;5.57;;;;;;;;;;6268380;22;20098;-45
2022/12/24 00:47:53;;;;;;;30.70;7.20;;;;;;;;;;6270591;22;20102;-46
2022/12/24 00:50:20;;;;;;;21.33;6.70;;;;;;;;;;6268556;22;20019;-46
2022/12/24 00:52:53;;;;;;;12.02;6.72;;;;;;;;;;6268090;22;20389;-47
2022/12/24 00:55:20;;;;;;;40.55;9.82;;;;;;;;;;6268766;22;20023;-48
2022/12/24 00:57:54;;;;;;;40.25;7.63;;;;;;;;;;6268808;22;20423;-46
2022/12/24 01:00:22;;;;;;;21.92;6.70;;;;;;;;;;6268457;22;20042;-50
2022/12/24 01:02:49;;;;;;;18.55;6.53;;;;;;;;;;6266532;22;20024;-58
2022/12/24 01:05:23;;;;;;;33.58;7.80;;;;;;;;;;6266439;22;20744;-46
2022/12/24 01:07:50;;;;;;;28.00;7.30;;;;;;;;;;6269187;22;20098;-47
2022/12/24 01:10:24;;;;;;;15.55;6.05;;;;;;;;;;6268283;22;20058;-46
2022/12/24 01:12:51;;;;;;;14.20;6.72;;;;;;;;;;6266684;22;20066;-48
2022/12/24 01:15:18;;;;;;;13.75;6.13;;;;;;;;;;6269436;22;20415;-47
2022/12/24 01:18:04;;;;;;;13.57;5.45;;;;;;;;;;6268390;22;20023;-48
2022/12/24 01:20:38;;;;;;;31.08;7.35;;;;;;;;;;6267978;22;20392;-51
2022/12/24 01:23:12;;;;;;;43.67;7.68;;;;;;;;;;6268228;22;20110;-52
2022/12/24 01:25:46;;;;;;;31.48;6.95;;;;;;;;;;6269154;22;20118;-54
2022/12/24 01:28:14;;;;;;;20.88;6.82;;;;;;;;;;6267710;22;20124;-56
2022/12/24 01:30:41;;;;;;;11.70;5.75;;;;;;;;;;6269159;22;20563;-50
2022/12/24 01:33:14;;;;;;;26.67;6.60;;;;;;;;;;6267612;22;20051;-54
2022/12/24 01:35:42;;;;;;;18.20;6.80;;;;;;;;;;6268233;22;20356;-50
2022/12/24 01:38:16;;;;;;;35.35;7.47;;;;;;;;;;6269510;22;20531;-62
2022/12/24 01:43:34;;;;;;;14.60;6.78;;;;;;;;;;6267965;22;20103;-53
2022/12/24 01:46:07;;;;;;;40.55;7.85;;;;;;;;;;6268045;22;20055;-56
2022/12/24 01:48:43;;;;;;;34.95;7.72;;;;;;;;;;6267624;22;20468;-55
2022/12/24 01:51:13;;;;;;;64.03;8.57;;;;;;;;;;6267896;22;20828;-51
2022/12/24 01:53:42;;;;;;;21.63;7.75;;;;;;;;;;6268579;22;20054;-51
2022/12/24 01:56:16;;;;;;;54.40;8.15;;;;;;;;;;6267676;22;20024;-60
2022/12/24 01:58:43;;;;;;;;;;;;;;;;;;6269227;22;20024;-48
2022/12/24 02:01:10;;;;;;;13.98;6.50;;;;;;;;;;6268556;22;19947;-49
2022/12/24 02:03:44;;;;;;;27.58;7.10;;;;;;;;;;6269478;22;20081;-47
2022/12/24 02:06:14;;;;;;;37.53;7.35;;;;;;;;;;6268035;22;20024;-46
2022/12/24 02:08:48;;;;;;;23.80;6.68;;;;;;;;;;6268138;22;20028;-47
2022/12/24 02:11:15;;;;;;;;;;;;;;;;;;6269213;22;20066;-46
2022/12/24 02:13:50;;;;;;;13.73;5.50;;;;;;;;;;6267904;22;19919;-62
2022/12/24 02:16:36;;;;;;;35.50;6.85;;;;;;;;;;6268441;22;20103;-62
2022/12/24 02:19:34;;;;;;;41.80;6.47;;;;;;;;;;6237615;23;20085;-60
2022/12/24 02:22:01;;;;;;;20.48;5.93;;;;;;;;;;6240459;23;20091;-59
2022/12/24 02:24:44;;;;;;;22.42;7.90;;;;;;;;;;6241281;23;20048;-56
2022/12/24 02:27:16;;;;;;;130.50;11.35;;;;;;;;;;6239923;23;20102;-60
2022/12/24 02:29:59;;;;;;;97.00;8.82;;;;;;;;;;6239719;23;20058;-61
2022/12/24 02:32:46;;;;;;;44.47;7.22;;;;;;;;;;6239453;23;20028;-62
2022/12/24 02:35:30;;;;;;;20.92;5.75;;;;;;;;;;6237923;23;20031;-57
2022/12/24 02:38:07;;;;;;;153.30;12.25;;;;;;;;;;6239699;23;20051;-47
2022/12/24 02:40:46;;;;;;;17.80;5.97;;;;;;;;;;6239173;23;20043;-47
2022/12/24 02:43:22;;;;;;;36.10;6.05;;;;;;;;;;6239901;23;20099;-48
2022/12/24 02:45:53;;;;;;;17.38;6.10;;;;;;;;;;6239535;23;20051;-48
2022/12/24 02:48:28;;;;;;;12.65;4.97;;;;;;;;;;6241718;23;20470;-50
2022/12/24 02:50:57;;;;;;;27.98;6.80;;;;;;;;;;6240970;23;20088;-63
2022/12/24 02:53:31;;;;;;;31.45;7.38;;;;;;;;;;6237150;23;20474;-58
2022/12/24 02:56:00;;;;;;;71.15;8.90;;;;;;;;;;6240712;23;20020;-59
2022/12/24 02:58:41;;;;;;;491.13;24.48;;;;;;;;;;6240984;23;20031;-60
2022/12/24 03:01:32;;;;;;;145.45;11.95;;;;;;;;;;6240454;23;20489;-57
2022/12/24 03:04:04;;;;;;;59.95;7.88;;;;;;;;;;6240271;23;20083;-60
2022/12/24 03:06:47;;;;;;;208.57;14.40;;;;;;;;;;6239691;23;20095;-60
2022/12/24 03:09:20;;;;;;;46.15;8.05;;;;;;;;;;6238654;23;20753;-60
2022/12/24 03:11:58;;;;;;;417.15;21.63;;;;;;;;;;6236991;23;20548;-59
2022/12/24 03:14:33;;;;;;;;;;;;;;;;;;6239743;23;20541;-63
2022/12/24 03:17:13;;;;;;;69.93;7.68;;;;;;;;;;6243925;22;19985;-63
2022/12/24 03:19:48;;;;;;;38.28;6.70;;;;;;;;;;6270392;22;20412;-62
2022/12/24 03:22:22;;;;;;;44.30;6.47;;;;;;;;;;6269604;22;20024;-63
2022/12/24 03:24:56;;;;;;;202.15;12.07;;;;;;;;;;6268270;22;20556;-63
2022/12/24 03:27:25;;;;;;;32.80;7.47;;;;;;;;;;6269258;22;20030;-47
2022/12/24 03:29:52;;;;;;;37.63;7.45;;;;;;;;;;6271015;22;20103;-49
2022/12/24 03:32:29;;;;;;;75.90;8.90;;;;;;;;;;6269338;22;20103;-58
2022/12/24 03:34:57;;;;;;;163.10;12.68;;;;;;;;;;6269900;22;20023;-60
2022/12/24 03:37:30;;;;;;;169.07;11.93;;;;;;;;;;6269245;22;20102;-57
2022/12/24 03:39:57;;;;;;;89.18;8.65;;;;;;;;;;6268060;22;20098;-58
2022/12/24 03:42:25;;;;;;;58.17;8.13;;;;;;;;;;6269102;22;20390;-58
2022/12/24 03:44:58;;;;;;;42.25;7.55;;;;;;;;;;6269157;22;20481;-60
2022/12/24 03:47:25;;;;;;;78.07;7.43;;;;;;;;;;6242342;22;20098;-59
2022/12/24 03:49:59;;;;;;;107.30;9.02;;;;;;;;;;6268158;22;20680;-60
2022/12/24 03:52:27;;;;;;;34.45;6.38;;;;;;;;;;6269243;22;20106;-61
2022/12/24 03:54:54;;;;;;;12.52;5.65;;;;;;;;;;6271165;22;20081;-60
2022/12/24 03:57:27;;;;;;;15.38;5.85;;;;;;;;;;6267787;22;20020;-61
2022/12/24 03:59:55;;;;;;;35.80;6.90;;;;;;;;;;6269898;22;20103;-61
2022/12/24 04:02:28;;;;;;;11.60;5.65;;;;;;;;;;6268659;22;20035;-61
2022/12/24 04:04:56;;;;;;;;;;;;;;;;;;6270072;22;20538;-47
2022/12/24 04:07:23;;;;;;;9.98;5.80;;;;;;;;;;6268763;22;19915;-61
2022/12/24 04:09:56;;;;;;;12.95;5.68;;;;;;;;;;6269323;22;20543;-61
2022/12/24 04:12:23;;;;;;;12.70;5.90;;;;;;;;;;6268878;22;20024;-62
2022/12/24 04:14:57;;;;;;;21.90;5.95;;;;;;;;;;6269872;22;20057;-62
2022/12/24 04:17:31;;;;;;;44.35;7.47;;;;;;;;;;6267767;22;20745;-61
2022/12/24 04:20:12;;;;;;;12.52;5.85;;;;;;;;;;6270041;22;20098;-62
2022/12/24 04:22:40;;;;;;;10.73;6.00;;;;;;;;;;6269337;22;20401;-62
2022/12/24 04:25:15;;;;;;;12.10;5.40;;;;;;;;;;6268168;22;20946;-52
2022/12/24 04:27:42;;;;;;;57.65;6.78;;;;;;;;;;6269057;22;20126;-61
2022/12/24 04:30:09;;;;;;;29.10;5.75;;;;;;;;;;6270382;22;20408;-62
2022/12/24 04:32:42;;;;;;;11.32;5.60;;;;;;;;;;6268246;22;20031;-62
2022/12/24 04:35:10;;;;;;;9.52;4.80;;;;;;;;;;6269598;22;20024;-61
2022/12/24 04:37:43;;;;;;;9.65;5.13;;;;;;;;;;6269631;22;20499;-59
2022/12/24 04:40:11;;;;;;;9.82;5.20;;;;;;;;;;6268293;22;20016;-60
2022/12/24 04:42:38;;;;;;;;;;;;;;;;;;6270131;22;20019;-62
2022/12/24 04:45:24;;;;;;;8.30;4.82;;;;;;;;;;6268707;22;19915;-60
2022/12/24 04:47:51;;;;;;;12.07;5.78;;;;;;;;;;6269287;22;20098;-60
2022/12/24 04:50:26;;;;;;;140.45;11.77;;;;;;;;;;6269288;22;20126;-59
2022/12/24 04:52:53;;;;;;;12.18;5.38;;;;;;;;;;6268476;22;20461;-61
2022/12/24 04:55:20;;;;;;;11.45;5.80;;;;;;;;;;6268855;22;20473;-61
2022/12/24 04:57:53;;;;;;;14.23;5.50;;;;;;;;;;6268674;22;20099;-59
2022/12/24 05:00:21;;;;;;;66.78;7.05;;;;;;;;;;6269118;22;20047;-63
2022/12/24 05:02:55;;;;;;;50.67;6.90;;;;;;;;;;6267796;22;20016;-63
2022/12/24 05:05:22;;;;;;;;;;;;;;;;;;6270288;22;20093;-63
2022/12/24 05:07:49;;;;;;;7.97;4.63;;;;;;;;;;6268702;22;19998;-63
2022/12/24 05:10:23;;;;;;;9.50;5.10;;;;;;;;;;6269566;22;20288;-63
2022/12/24 05:12:50;;;;;;;9.82;4.80;;;;;;;;;;6268755;22;20020;-63
2022/12/24 05:15:17;;;;;;;9.55;4.65;;;;;;;;;;6268008;22;20176;-63
2022/12/24 05:17:57;;;;;;;7.13;4.00;;;;;;;;;;6266793;22;20024;-61
2022/12/24 05:20:24;;;;;;;6.55;3.88;;;;;;;;;;6269229;22;20102;-49
2022/12/24 05:28:36;;;;;;;9.33;4.10;;;;;;;;;;6270082;22;20110;-61
2022/12/24 05:31:04;;;;;;;6.53;3.63;;;;;;;;;;6240934;22;20522;-61
2022/12/24 05:33:31;;;;;;;;;;;;;;;;;;6267908;22;20105;-60
2022/12/24 05:36:05;;;;;;;7.63;3.73;;;;;;;;;;6268949;22;20580;-50
2022/12/24 05:38:39;;;;;;;5.83;3.00;;;;;;;;;;6269497;22;20022;-60
2022/12/24 05:41:06;;;;;;;;;;;;;;;;;;6269618;22;20027;-62
2022/12/24 05:43:33;;;;;;;4.27;2.73;;;;;;;;;;6266634;22;20640;-62
2022/12/24 05:46:08;;;;;;;4.53;2.80;;;;;;;;;;6267435;22;20457;-61
2022/12/24 05:48:35;;;;;;;4.03;2.83;;;;;;;;;;6268625;22;20033;-62
2022/12/24 05:51:07;;;;;;;3.23;2.50;;;;;;;;;;6269369;22;20020;-61
2022/12/24 05:53:41;;;;;;;3.08;1.90;;;;;;;;;;6268491;22;20098;-61
2022/12/24 05:56:08;;;;;;;;;;;;;;;;;;6271330;22;20077;-48
2022/12/24 05:58:42;;;;;;;9.20;2.80;;;;;;;;;;6269581;22;20005;-52
2022/12/24 06:01:09;;;;;;;3.80;2.57;;;;;;;;;;6268072;22;20026;-54
2022/12/24 06:03:37;;;;;;;4.57;2.83;;;;;;;;;;6271120;22;20031;-49
2022/12/24 06:06:12;;;;;;;4.43;2.83;;;;;;;;;;6270136;22;20098;-49
2022/12/24 06:08:39;;;;;;;4.83;2.90;;;;;;;;;;6270727;22;20035;-52
2022/12/24 06:11:08;;;;;;;3.40;2.20;;;;;;;;;;6269590;22;20102;-49
2022/12/24 06:13:42;;;;;;;3.47;2.30;;;;;;;;;;6270967;22;20098;-59
2022/12/24 06:16:11;;;;;;;4.40;2.63;;;;;;;;;;6269323;22;20393;-56
2022/12/24 06:18:51;;;;;;;4.33;2.27;;;;;;;;;;6269488;22;20055;-59
2022/12/24 06:21:25;;;;;;;3.33;2.30;;;;;;;;;;6270554;22;20091;-57
2022/12/24 06:23:59;;;;;;;3.50;2.53;;;;;;;;;;6270348;22;20027;-59
2022/12/24 06:26:33;;;;;;;5.83;2.80;;;;;;;;;;6269921;22;20026;-57
2022/12/24 06:29:08;;;;;;;4.27;2.53;;;;;;;;;;6270202;22;20024;-58
2022/12/24 06:31:35;;;;;;;4.47;2.40;;;;;;;;;;6269051;22;20095;-57
2022/12/24 06:34:09;;;;;;;4.40;2.40;;;;;;;;;;6269717;22;20095;-63
2022/12/24 06:36:36;;;;;;;4.85;2.88;;;;;;;;;;6270049;22;20059;-63
2022/12/24 06:39:03;;;;;;;4.57;2.90;;;;;;;;;;6267238;22;20043;-63
2022/12/24 06:41:36;;;;;;;4.43;2.77;;;;;;;;;;6269456;22;20099;-62
2022/12/24 06:44:04;;;;;;;5.78;2.38;;;;;;;;;;6268868;22;20054;-63
2022/12/24 06:46:38;;;;;;;4.07;2.47;;;;;;;;;;6269460;22;20091;-62
2022/12/24 06:49:05;;;;;;;;;;;;;;;;;;6269850;22;20495;-63
2022/12/24 06:51:32;;;;;;;2.63;2.20;;;;;;;;;;6270592;22;19915;-61
2022/12/24 06:54:06;;;;;;;4.30;2.60;;;;;;;;;;6269261;22;20102;-60
2022/12/24 06:56:33;;;;;;;3.63;2.70;;;;;;;;;;6270497;22;20070;-60
2022/12/24 06:59:00;;;;;;;3.23;2.30;;;;;;;;;;6268183;22;20026;-61
2022/12/24 07:01:33;;;;;;;5.20;2.50;;;;;;;;;;6269067;22;20057;-61
2022/12/24 07:04:01;;;;;;;5.37;2.70;;;;;;;;;;6265011;22;20281;-60
2022/12/24 07:06:42;;;;;;;3.27;2.20;;;;;;;;;;6270272;22;20042;-60
2022/12/24 07:09:12;;;;;;;4.00;2.50;;;;;;;;;;6270511;22;20417;-62
2022/12/24 07:11:45;;;;;;;3.37;2.40;;;;;;;;;;6270035;22;20068;-51
2022/12/24 07:14:12;;;;;;;4.32;2.38;;;;;;;;;;6270015;22;20067;-52
2022/12/24 07:16:40;;;;;;;3.55;2.28;;;;;;;;;;6270075;22;20422;-56
2022/12/24 07:19:23;;;;;;;4.50;2.45;;;;;;;;;;6270804;22;20059;-51
2022/12/24 07:21:50;;;;;;;3.97;2.23;;;;;;;;;;6268702;22;20030;-50
2022/12/24 07:24:25;;;;;;;5.03;2.50;;;;;;;;;;6269926;22;20051;-54
2022/12/24 07:26:52;;;;;;;;;;;;;;;;;;6269496;22;20019;-46
2022/12/24 07:29:19;;;;;;;4.43;2.50;;;;;;;;;;6240994;22;20333;-49
2022/12/24 07:31:52;;;;;;;4.37;2.40;;;;;;;;;;6270022;22;20047;-47
2022/12/24 07:34:20;;;;;;;;;;;;;;;;;;6269936;22;20536;-47
2022/12/24 07:36:53;;;;;;;3.57;2.40;;;;;;;;;;6270140;22;19919;-47
2022/12/24 07:39:21;;;;;;;4.20;2.72;;;;;;;;;;6271028;22;20099;-48
2022/12/24 07:41:49;;;;;;;;;;;;;;;;;;6272047;22;20044;-49
2022/12/24 07:44:23;;;;;;;4.07;3.13;;;;;;;;;;6269863;22;19919;-48
2022/12/24 07:46:50;;;;;;;;;;;;;;;;;;6268517;22;20479;-52
2022/12/24 07:49:24;;;;;;;5.03;2.50;;;;;;;;;;6266887;22;19965;-59
2022/12/24 07:51:51;;;;;;;4.45;2.85;;;;;;;;;;6266824;22;20020;-61
2022/12/24 07:54:18;;;;;;;;;;;;;;;;;;6265142;22;20067;-61
2022/12/24 07:56:51;;;;;;;4.47;2.90;;;;;;;;;;6268597;22;19985;-61
2022/12/24 07:59:18;;;;;;;4.32;2.95;;;;;;;;;;6265879;22;20070;-62
2022/12/24 08:01:52;;;;;;;4.03;2.53;;;;;;;;;;6269833;22;20054;-59
2022/12/24 08:04:20;;;;;;;3.47;2.50;;;;;;;;;;6267130;22;20066;-57
2022/12/24 08:06:47;;;;;;;4.03;2.60;;;;;;;;;;6266932;22;20020;-55
2022/12/24 08:09:21;;;;;;;4.47;2.90;;;;;;;;;;6268081;22;20106;-55
2022/12/24 08:11:48;;;;;;;4.43;2.70;;;;;;;;;;6268599;22;20406;-56
2022/12/24 08:14:22;;;;;;;2.80;2.43;;;;;;;;;;6269000;22;20094;-52
2022/12/24 08:16:49;;;;;;;;;;;;;;;;;;6268643;22;20059;-54
2022/12/24 08:19:16;;;;;;;7.53;3.13;;;;;;;;;;6268448;22;19919;-56
2022/12/24 08:21:50;;;;;;;7.03;3.33;;;;;;;;;;6269844;22;20095;-47
2022/12/24 08:24:17;;;;;;;4.37;3.00;;;;;;;;;;6268764;22;20548;-58
2022/12/24 08:26:44;;;;;;;4.88;2.90;;;;;;;;;;6269590;22;20044;-49
2022/12/24 08:29:17;;;;;;;6.33;2.87;;;;;;;;;;6269654;22;20032;-48
2022/12/24 08:31:45;;;;;;;4.68;3.13;;;;;;;;;;6269222;22;20098;-49
2022/12/24 08:34:19;;;;;;;4.23;3.00;;;;;;;;;;6268302;22;20023;-49
2022/12/24 08:36:46;;;;;;;5.80;3.00;;;;;;;;;;6268346;22;20020;-51
2022/12/24 08:39:13;;;;;;;;;;;;;;;;;;6268256;22;20024;-51
2022/12/24 08:41:47;;;;;;;9.60;5.00;;;;;;;;;;6269279;22;20009;-48
2022/12/24 08:44:14;;;;;;;9.20;4.30;;;;;;;;;;6268827;22;20099;-53
2022/12/24 08:46:41;;;;;;;5.77;3.40;;;;;;;;;;6269449;22;20106;-58
2022/12/24 08:49:16;;;;;;;4.57;2.50;;;;;;;;;;6270172;22;20024;-56
2022/12/24 08:51:43;;;;;;;;;;;;;;;;;;6269814;22;20099;-57
2022/12/24 08:54:17;;;;;;;3.90;2.30;;;;;;;;;;6269701;22;20395;-53
2022/12/24 08:56:44;;;;;;;5.53;2.43;;;;;;;;;;6269847;22;20020;-59
2022/12/24 08:59:11;;;;;;;3.97;2.70;;;;;;;;;;6269368;22;20530;-53
2022/12/24 09:01:46;;;;;;;3.37;2.40;;;;;;;;;;6267502;22;20091;-51
2022/12/24 09:04:13;;;;;;;7.20;3.23;;;;;;;;;;6241538;22;20039;-49
2022/12/24 09:06:40;;;;;;;;;;;;;;;;;;6268559;22;20029;-50
2022/12/24 09:09:13;;;;;;;6.33;2.70;;;;;;;;;;6269398;22;19923;-54
2022/12/24 09:11:40;;;;;;;6.32;3.03;;;;;;;;;;6267430;22;20046;-50
2022/12/24 09:14:15;;;;;;;5.47;2.77;;;;;;;;;;6267181;22;20496;-47
2022/12/24 09:16:42;;;;;;;5.23;2.93;;;;;;;;;;6268185;22;20098;-49
2022/12/24 09:19:09;;;;;;;5.50;2.77;;;;;;;;;;6266552;22;20098;-53
2022/12/24 09:21:49;;;;;;;4.37;2.70;;;;;;;;;;6267376;22;20098;-48
2022/12/24 09:24:16;;;;;;;3.20;2.10;;;;;;;;;;6269385;22;20407;-51
2022/12/24 09:26:50;;;;;;;5.50;3.50;;;;;;;;;;6267424;22;20026;-56
2022/12/24 09:29:23;;;;;;;3.60;2.40;;;;;;;;;;6268593;22;20057;-50
2022/12/24 09:31:58;;;;;;;4.57;2.63;;;;;;;;;;6267591;22;20123;-54
2022/12/24 09:34:25;;;;;;;6.20;3.10;;;;;;;;;;6267113;22;20019;-52
2022/12/24 09:37:01;;;;;;;5.00;2.80;;;;;;;;;;6268942;22;20051;-57
2022/12/24 09:39:28;;;;;;;5.40;2.87;;;;;;;;;;6268716;22;20429;-52
2022/12/24 09:42:14;;;;;;;9.37;3.77;;;;;;;;;;6267656;22;20027;-49
2022/12/24 09:44:54;;;;;;;6.73;3.17;;;;;;;;;;6268808;22;20465;-50
2022/12/24 09:47:26;;;;;;;4.47;2.70;;;;;;;;;;6267662;22;20098;-51
2022/12/24 09:50:03;;;;;;;7.13;3.30;;;;;;;;;;6267907;22;20238;-48
2022/12/24 09:52:38;;;;;;;5.20;2.80;;;;;;;;;;6242558;22;20016;-50
2022/12/24 09:55:19;;;;;;;6.60;3.00;;;;;;;;;;6265332;22;20606;-61
2022/12/24 09:57:47;;;;;;;5.60;3.00;;;;;;;;;;6266454;22;20035;-60
2022/12/24 10:00:23;;;;;;;8.60;4.27;;;;;;;;;;6241280;22;20094;-60
2022/12/24 10:02:50;;;;;;;15.10;6.87;;;;;;;;;;6267772;22;20106;-62
2022/12/24 10:05:18;;;;;;;10.23;5.10;;;;;;;;;;6268056;22;20024;-59
2022/12/24 10:08:18;;;;;;;11.33;5.03;;;;;;;;;;6266499;22;20683;-60
2022/12/24 10:10:52;;;;;;;12.47;5.20;;;;;;;;;;6260275;22;20039;-61
2022/12/24 10:13:34;;;;;;;15.43;7.03;;;;;;;;;;6267887;22;20063;-57
2022/12/24 10:16:13;;;;;;;13.00;6.20;;;;;;;;;;6268670;22;20030;-59
2022/12/24 10:18:56;;;;;;;10.50;4.80;;;;;;;;;;6267763;22;20029;-57
2022/12/24 10:21:32;;;;;;;9.03;4.87;;;;;;;;;;6268789;22;20028;-57
2022/12/24 10:24:10;;;;;;;11.20;5.30;;;;;;;;;;6267701;22;20131;-53
2022/12/24 10:26:46;;;;;;;9.93;5.70;;;;;;;;;;6267479;22;20094;-57
2022/12/24 10:29:22;;;;;;;8.40;5.00;;;;;;;;;;6267147;22;20051;-57
2022/12/24 10:31:58;;;;;;;10.80;5.30;;;;;;;;;;6268365;22;20357;-62
2022/12/24 10:34:33;;;;;;;18.37;5.97;;;;;;;;;;6269006;22;20322;-54
2022/12/24 10:37:07;;;;;;;8.53;4.70;;;;;;;;;;6266812;22;20115;-55
2022/12/24 10:39:34;;;;;;;17.37;7.70;;;;;;;;;;6268404;22;20024;-52
2022/12/24 10:42:08;;;;;;;9.77;5.03;;;;;;;;;;6270491;22;20418;-49
2022/12/24 10:44:36;;;;;;;9.47;4.77;;;;;;;;;;6270692;22;20103;-51
2022/12/24 10:47:04;;;;;;;10.98;5.00;;;;;;;;;;6270398;22;20439;-51
2022/12/24 10:49:46;;;;;;;6.93;4.73;;;;;;;;;;6269274;22;20016;-59
2022/12/24 10:52:27;;;;;;;22.10;10.83;;;;;;;;;;6270177;22;20047;-51
2022/12/24 10:55:07;;;;;;;22.07;10.90;;;;;;;;;;6270065;22;20020;-51
2022/12/24 10:57:34;;;;;;;16.23;8.47;;;;;;;;;;6267108;22;20103;-50
2022/12/24 11:00:24;;;;;;;13.03;6.80;;;;;;;;;;6270738;22;20410;-50
2022/12/24 11:03:13;;;;;;;14.37;6.60;;;;;;;;;;6245679;22;20055;-53
2022/12/24 11:05:58;;;;;;;12.67;7.00;;;;;;;;;;6271082;22;20023;-50
2022/12/24 11:08:25;;;;;;;6.00;3.33;;;;;;;;;;6271067;22;20043;-47
2022/12/24 11:11:00;;;;;;;6.50;3.80;;;;;;;;;;6271437;22;20099;-55
2022/12/24 11:13:54;;;;;;;7.33;3.13;;;;;;;;;;6270666;22;20429;-60
2022/12/24 11:16:30;;;;;;;4.70;3.20;;;;;;;;;;6271868;22;20020;-56
2022/12/24 11:19:12;;;;;;;5.90;3.40;;;;;;;;;;6270259;22;20028;-54
2022/12/24 11:21:47;;;;;;;7.63;4.00;;;;;;;;;;6270075;22;20102;-59
2022/12/24 11:24:14;;;;;;;;;;;;;;;;;;6242242;22;20537;-59
2022/12/24 11:26:42;;;;;;;7.73;3.50;;;;;;;;;;6268855;22;19997;-56
2022/12/24 11:29:20;;;;;;;16.17;6.43;;;;;;;;;;6269596;22;20139;-54
2022/12/24 11:31:48;;;;;;;6.10;2.97;;;;;;;;;;6271113;22;20069;-51
2022/12/24 11:34:22;;;;;;;7.43;3.53;;;;;;;;;;6268465;22;20586;-51
2022/12/24 11:37:08;;;;;;;7.87;3.47;;;;;;;;;;6266401;22;20406;-53
2022/12/24 11:39:41;;;;;;;5.60;3.20;;;;;;;;;;6268261;22;20563;-54
2022/12/24 11:42:31;;;;;;;6.27;3.20;;;;;;;;;;6268854;22;20050;-53
2022/12/24 11:45:00;;;;;;;5.78;3.42;;;;;;;;;;6270102;22;20070;-48
2022/12/24 11:47:35;;;;;;;4.07;2.92;;;;;;;;;;6270406;22;20051;-61
2022/12/24 11:50:19;;;;;;;3.72;2.72;;;;;;;;;;6269694;22;20751;-56
2022/12/24 11:53:02;;;;;;;5.30;3.03;;;;;;;;;;6270113;22;20020;-60
2022/12/24 11:55:32;;;;;;;7.40;2.75;;;;;;;;;;6270442;22;20094;-58
2022/12/24 11:58:19;;;;;;;6.03;2.80;;;;;;;;;;6269102;22;20098;-57
2022/12/24 12:00:47;;;;;;;5.65;2.65;;;;;;;;;;6271950;22;20397;-57
2022/12/24 12:03:37;;;;;;;4.90;3.08;;;;;;;;;;6268939;22;20023;-47
2022/12/24 12:06:11;;;;;;;3.85;2.42;;;;;;;;;;6269281;22;20081;-62
2022/12/24 12:08:46;;;;;;;3.70;2.70;;;;;;;;;;6269321;22;20034;-62
2022/12/24 12:11:14;;;;;;;6.18;2.60;;;;;;;;;;6268768;22;20066;-62
2022/12/24 12:13:48;;;;;;;4.95;2.90;;;;;;;;;;6268336;22;20066;-62
2022/12/24 12:16:21;;;;;;;5.28;2.78;;;;;;;;;;6269565;22;20559;-62
2022/12/24 12:19:09;;;;;;;6.55;3.10;;;;;;;;;;6268000;22;20019;-62
2022/12/24 12:21:44;;;;;;;6.28;3.67;;;;;;;;;;6269709;22;20027;-60
2022/12/24 12:24:26;;;;;;;6.50;3.83;;;;;;;;;;6265564;22;20047;-46
2022/12/24 12:27:10;;;;;;;8.40;3.53;;;;;;;;;;6266046;22;20035;-50
2022/12/24 12:29:46;;;;;;;8.38;4.07;;;;;;;;;;6267955;22;20049;-47
2022/12/24 12:32:26;;;;;;;7.63;4.40;;;;;;;;;;6269662;22;20428;-48
2022/12/24 12:35:03;;;;;;;6.60;3.92;;;;;;;;;;6269057;22;20024;-46
2022/12/24 12:37:38;;;;;;;7.10;4.10;;;;;;;;;;6267223;22;20026;-47
2022/12/24 12:40:17;;;;;;;6.97;3.63;;;;;;;;;;6269130;22;20020;-63
2022/12/24 12:42:51;;;;;;;4.70;3.00;;;;;;;;;;6267836;22;20107;-62
2022/12/24 12:45:33;;;;;;;5.55;3.60;;;;;;;;;;6270274;22;20024;-63
2022/12/24 12:48:09;;;;;;;5.38;3.33;;;;;;;;;;6267931;22;20098;-62
2022/12/24 12:50:49;;;;;;;4.05;3.08;;;;;;;;;;6270234;22;20059;-62
2022/12/24 12:53:28;;;;;;;4.75;3.13;;;;;;;;;;6266000;22;20034;-62
2022/12/24 12:56:07;;;;;;;5.18;3.55;;;;;;;;;;6268915;22;20094;-62
2022/12/24 12:58:57;;;;;;;5.38;3.38;;;;;;;;;;6268880;22;20107;-62
2022/12/24 13:01:39;;;;;;;7.13;3.50;;;;;;;;;;6270393;22;20393;-49
2022/12/24 13:04:34;;;;;;;8.23;3.40;;;;;;;;;;6270325;22;20351;-49
2022/12/24 13:07:18;;;;;;;10.77;4.00;;;;;;;;;;6267296;22;20483;-47
2022/12/24 13:09:52;;;;;;;6.38;4.05;;;;;;;;;;6267079;22;20499;-48
2022/12/24 13:12:26;;;;;;;5.07;2.90;;;;;;;;;;6263777;22;20062;-48
2022/12/24 13:15:09;;;;;;;8.77;3.47;;;;;;;;;;6265004;22;20059;-48
2022/12/24 13:18:01;;;;;;;7.40;3.63;;;;;;;;;;6264184;22;20090;-52
2022/12/24 13:20:42;;;;;;;8.13;3.95;;;;;;;;;;6233450;23;20028;-63
2022/12/24 13:23:23;;;;;;;6.53;3.95;;;;;;;;;;6235480;23;20062;-62
2022/12/24 13:25:51;;;;;;;5.32;3.40;;;;;;;;;;6232525;23;20411;-63
2022/12/24 13:28:25;;;;;;;5.60;3.15;;;;;;;;;;6230668;23;20028;-63
2022/12/24 13:31:01;;;;;;;6.55;3.90;;;;;;;;;;6235392;23;20020;-62
2022/12/24 13:33:35;;;;;;;8.57;3.78;;;;;;;;;;6234495;23;20024;-62
2022/12/24 13:36:03;;;;;;;5.18;3.40;;;;;;;;;;6235081;23;20020;-49
2022/12/24 13:38:41;;;;;;;6.90;3.28;;;;;;;;;;6234312;23;20159;-55
2022/12/24 13:41:37;;;;;;;6.82;3.80;;;;;;;;;;6230354;23;20098;-55
2022/12/24 13:44:12;;;;;;;6.55;4.05;;;;;;;;;;6231881;23;20687;-57
2022/12/24 13:47:05;;;;;;;4.88;3.33;;;;;;;;;;6234875;23;20481;-51
2022/12/24 13:49:33;;;;;;;14.38;7.10;;;;;;;;;;6235499;23;20019;-53
2022/12/24 13:52:17;;;;;;;10.80;4.60;;;;;;;;;;6234509;23;20026;-53
2022/12/24 13:54:50;;;;;;;8.95;3.70;;;;;;;;;;6231393;23;20473;-51
2022/12/24 13:57:30;;;;;;;7.18;3.90;;;;;;;;;;6232301;23;20026;-50
2022/12/24 14:00:13;;;;;;;8.23;4.18;;;;;;;;;;6209247;23;20058;-48
2022/12/24 14:03:15;;;;;;;7.72;4.22;;;;;;;;;;6234223;23;20078;-50
2022/12/24 14:05:54;;;;;;;6.50;3.60;;;;;;;;;;6234040;23;20028;-48
2022/12/24 14:08:36;;;;;;;6.13;3.42;;;;;;;;;;6231673;23;20451;-47
2022/12/24 14:11:06;;;;;;;8.45;4.10;;;;;;;;;;6231394;23;20357;-62
2022/12/24 14:13:39;;;;;;;6.63;3.67;;;;;;;;;;6233234;23;20047;-55
2022/12/24 14:16:21;;;;;;;8.27;4.30;;;;;;;;;;6236767;23;20063;-61
2022/12/24 14:19:08;;;;;;;5.60;2.55;;;;;;;;;;6247373;22;20099;-61
2022/12/24 14:22:03;;;;;;;6.22;3.50;;;;;;;;;;6268330;22;20115;-62
2022/12/24 14:24:40;;;;;;;6.30;3.63;;;;;;;;;;6266182;22;20055;-62
2022/12/24 14:27:14;;;;;;;8.10;4.07;;;;;;;;;;6268820;22;20024;-61
2022/12/24 14:29:50;;;;;;;5.27;3.20;;;;;;;;;;6268827;22;20023;-60
2022/12/24 14:32:23;;;;;;;5.22;3.50;;;;;;;;;;6268085;22;20098;-63
2022/12/24 14:35:07;;;;;;;8.52;4.55;;;;;;;;;;6267688;22;20584;-63
2022/12/24 14:37:41;;;;;;;8.20;4.00;;;;;;;;;;6268084;22;20058;-62
2022/12/24 14:40:17;;;;;;;5.65;3.70;;;;;;;;;;6265660;22;20102;-64
2022/12/24 14:42:53;;;;;;;7.90;3.40;;;;;;;;;;6267565;22;20830;-63
2022/12/24 14:45:29;;;;;;;6.38;3.70;;;;;;;;;;6267493;22;20095;-63
2022/12/24 14:48:15;;;;;;;4.35;2.85;;;;;;;;;;6266906;22;20046;-45
2022/12/24 14:50:58;;;;;;;7.15;4.07;;;;;;;;;;6267121;22;20028;-63
2022/12/24 14:53:48;;;;;;;6.25;3.90;;;;;;;;;;6267011;22;20101;-62
2022/12/24 14:56:22;;;;;;;8.73;4.47;;;;;;;;;;6267657;22;20070;-62
2022/12/24 14:58:49;;;;;;;;;;;;;;;;;;6267153;22;20063;-62
2022/12/24 15:01:24;;;;;;;10.17;4.97;;;;;;;;;;6267618;22;19946;-63
2022/12/24 15:04:10;;;;;;;8.13;4.00;;;;;;;;;;6265941;22;20038;-62
2022/12/24 15:06:48;;;;;;;8.03;4.50;;;;;;;;;;6267471;22;20400;-60
2022/12/24 15:09:19;;;;;;;6.97;4.00;;;;;;;;;;6265238;22;20346;-62
2022/12/24 15:11:54;;;;;;;7.57;3.88;;;;;;;;;;6265666;22;20024;-63
2022/12/24 15:14:29;;;;;;;10.37;3.90;;;;;;;;;;6264283;22;20476;-63
2022/12/24 15:16:57;;;;;;;6.73;3.90;;;;;;;;;;6263504;22;20508;-63
2022/12/24 15:19:42;;;;;;;13.43;5.40;;;;;;;;;;6262009;22;20034;-63
2022/12/24 15:22:30;;;;;;;9.10;3.53;;;;;;;;;;6262768;22;20535;-63
2022/12/24 15:25:18;;;;;;;13.70;5.38;;;;;;;;;;6262769;22;20106;-62
2022/12/24 15:27:52;;;;;;;7.97;4.65;;;;;;;;;;6264034;22;20062;-49
2022/12/24 15:30:27;;;;;;;10.88;4.65;;;;;;;;;;6264061;22;20098;-50